Latest Coastal Weather Observations for Darwin Harbour

IDD60701

Issued at 7:25 pm CST Friday 19 September 2014 (issued every 10 minutes, with the page automatically refreshed every 10 minutes)

About coastal observations | Map of coastal stations | Coastal observations for NT | Marine services | Other Formats
Station Details ID: 014072 Name: DARWIN NTC AWS Lat: -12.47 Lon: 130.85 Height: 0.0 m
Data from the previous 72 hours. | See also: Recent months for locations in Northern Territory
Date/Time
CST
Temp

°C
Wind Pressure Rain
since 9am
mm
Weather Cloud Vis
km
Sea
Height
m
Swell
Dir
 
Speed
knots
Gust
knots
hPa Trend Height
m
Period
s
Dir
19/07:00pm 28.4 W 8 10 1011.3 - - - - - - - - -
19/06:30pm 28.7 W 9 13 1010.7 - - - - - - - - -
19/06:00pm 30.7 WNW 6 10 1010.1 - - - - - - - - -
19/05:30pm 30.3 WNW 9 13 1009.6 - - - - - - - - -
19/05:00pm 29.6 WNW 10 14 1009.6 - - - - - - - - -
19/04:30pm 29.5 WNW 10 14 1009.7 - - - - - - - - -
19/04:00pm 30.3 NNW 8 14 1009.6 - - - - - - - - -
19/03:30pm 30.7 N 10 17 1009.9 - - - - - - - - -
19/03:00pm 30.2 WNW 10 17 1010.2 - - - - - - - - -
19/02:30pm 31.0 NW 11 19 1010.3 - - - - - - - - -
19/02:00pm 31.1 WNW 4 9 1010.9 - - - - - - - - -
19/01:30pm 30.3 W 6 9 1011.5 - - - - - - - - -
19/01:00pm 31.8 SSW 3 6 1012.0 - - - - - - - - -
19/12:30pm 30.0 WSW 4 7 1012.6 - - - - - - - - -
19/12:00pm 28.7 WSW 6 8 1013.3 - - - - - - - - -
19/11:30am 28.3 WSW 3 6 1014.1 - - - - - - - - -
19/11:00am 27.9 SSW 4 6 1014.7 - - - - - - - - -
19/10:30am 27.2 S 4 5 1015.2 - - - - - - - - -
19/10:00am 26.6 S 5 7 1015.5 - - - - - - - - -
19/09:30am 26.2 S 4 5 1015.4 - - - - - - - - -
19/09:00am 26.2 SE 3 4 1015.5 - - - - - - - - -
19/08:30am 25.7 SE 3 5 1015.2 - - - - - - - - -
19/08:00am 25.7 SE 3 5 1014.8 - - - - - - - - -
19/07:30am 25.4 SSE 2 3 1014.5 - - - - - - - - -
19/07:00am 25.3 ESE 3 5 1014.2 - - - - - - - - -
19/06:30am 25.2 SE 3 5 1013.9 - - - - - - - - -
19/06:00am 25.5 S 4 5 1013.5 - - - - - - - - -
19/05:30am 25.4 S 3 5 1013.3 - - - - - - - - -
19/05:00am 25.8 SW 2 5 1013.0 - - - - - - - - -
19/04:30am 25.8 WSW 4 5 1012.9 - - - - - - - - -
19/04:00am 25.7 WSW 4 6 1012.9 - - - - - - - - -
19/03:30am 25.7 WSW 4 5 1013.0 - - - - - - - - -
19/03:00am 25.6 WSW 4 6 1013.0 - - - - - - - - -
19/02:30am 25.7 SW 4 6 1013.2 - - - - - - - - -
19/02:00am 25.8 WSW 2 4 1013.5 - - - - - - - - -
19/01:30am 25.8 WSW 2 3 1013.6 - - - - - - - - -
19/01:00am 25.8 SW 3 4 1014.0 - - - - - - - - -
19/12:30am 25.9 SSW 2 4 1014.5 - - - - - - - - -
19/12:00am 26.0 WSW 4 6 1014.8 - - - - - - - - -
 
Date/Time
CST
Temp

°C
Wind Pressure Rain
since 9am
mm
Weather Cloud Vis
km
Sea
Height
m
Swell
Dir
 
Speed
knots
Gust
knots
hPa Trend Height
m
Period
s
Dir
18/11:30pm 26.4 SW 4 6 1014.8 - - - - - - - - -
18/11:00pm 26.9 SSW 4 6 1014.4 - - - - - - - - -
18/10:30pm 26.9 SW 4 8 1014.3 - - - - - - - - -
18/10:00pm 27.1 WSW 4 7 1014.0 - - - - - - - - -
18/09:30pm 27.4 SW 3 6 1013.6 - - - - - - - - -
18/09:00pm 27.3 WSW 5 7 1013.3 - - - - - - - - -
18/08:30pm 27.5 WSW 5 6 1013.1 - - - - - - - - -
18/08:00pm 27.6 W 5 7 1012.8 - - - - - - - - -
18/07:30pm 28.2 WNW 4 7 1012.4 - - - - - - - - -
18/07:00pm 29.0 WNW 5 7 1012.0 - - - - - - - - -
18/06:30pm 29.2 WNW 6 9 1011.5 - - - - - - - - -
18/06:00pm 28.7 W 9 12 1010.8 - - - - - - - - -
18/05:30pm 28.5 WNW 9 13 1010.7 - - - - - - - - -
18/05:00pm 29.0 NW 8 14 1010.5 - - - - - - - - -
18/04:30pm 29.2 NW 7 14 1010.6 - - - - - - - - -
18/04:00pm 29.1 WNW 9 16 1010.6 - - - - - - - - -
18/03:30pm 29.0 WNW 8 16 1010.9 - - - - - - - - -
18/03:00pm 29.1 WNW 11 17 1011.2 - - - - - - - - -
18/02:30pm 29.8 WNW 8 12 1011.6 - - - - - - - - -
18/02:00pm 29.6 WNW 8 14 1012.1 - - - - - - - - -
18/01:30pm 29.7 WNW 9 13 1012.8 - - - - - - - - -
18/01:00pm 29.2 W 7 11 1013.5 - - - - - - - - -
18/12:30pm 29.0 W 6 9 1014.2 - - - - - - - - -
18/12:00pm 28.6 WSW 4 6 1014.9 - - - - - - - - -
18/11:30am 28.1 WSW 4 5 1015.5 - - - - - - - - -
18/11:00am 27.2 WSW 3 5 1015.8 - - - - - - - - -
18/10:30am 26.6 WSW 3 5 1016.2 - - - - - - - - -
18/10:00am 26.7 S 2 4 1016.4 - - - - - - - - -
18/09:30am 26.9 SE 2 4 1016.2 - - - - - - - - -
18/09:00am 25.8 ESE 3 5 1016.1 - - - - - - - - -
18/08:30am 25.5 ESE 3 4 1015.8 - - - - - - - - -
18/08:00am 25.2 E 4 6 1015.5 - - - - - - - - -
18/07:30am 25.6 E 2 3 1015.0 - - - - - - - - -
18/07:00am 24.9 ENE 2 3 1014.6 - - - - - - - - -
18/06:30am 25.0 NE 1 3 1014.2 - - - - - - - - -
18/06:00am 25.2 ENE 1 2 1013.7 - - - - - - - - -
18/05:30am 25.5 CALM 0 1 1013.6 - - - - - - - - -
18/05:00am 25.7 NNE 1 2 1013.5 - - - - - - - - -
18/04:30am 25.9 NNW 1 2 1013.3 - - - - - - - - -
18/04:00am 25.8 NNW 2 4 1013.2 - - - - - - - - -
18/03:30am 25.9 NNW 2 4 1013.3 - - - - - - - - -
18/03:00am 26.3 N 2 4 1013.4 - - - - - - - - -
18/02:30am 26.5 NNW 2 4 1013.6 - - - - - - - - -
18/02:00am 26.5 N 2 5 1013.9 - - - - - - - - -
18/01:30am 26.4 NNE 2 5 1014.2 - - - - - - - - -
18/01:00am 26.5 N 3 5 1014.4 - - - - - - - - -
18/12:30am 26.7 NNW 3 5 1014.7 - - - - - - - - -
18/12:00am 26.7 N 3 7 1014.8 - - - - - - - - -
 
Date/Time
CST
Temp

°C
Wind Pressure Rain
since 9am
mm
Weather Cloud Vis
km
Sea
Height
m
Swell
Dir
 
Speed
knots
Gust
knots
hPa Trend Height
m
Period
s
Dir
17/11:30pm 27.1 N 5 11 1014.6 - - - - - - - - -
17/11:00pm 27.2 NW 5 11 1014.5 - - - - - - - - -
17/10:30pm 27.3 NW 9 14 1014.3 - - - - - - - - -
17/10:00pm 27.5 NW 4 8 1014.1 - - - - - - - - -
17/09:30pm 27.6 NNW 3 4 1013.8 - - - - - - - - -
17/09:00pm 27.7 S 1 4 1013.4 - - - - - - - - -
17/08:30pm 27.8 WSW 2 3 1012.8 - - - - - - - - -
17/08:00pm 28.0 W 4 6 1012.4 - - - - - - - - -
17/07:30pm 28.5 W 6 8 1011.7 - - - - - - - - -
17/07:00pm 28.9 W 7 10 1011.1 - - - - - - - - -
17/06:30pm 28.4 W 8 11 1010.7 - - - - - - - - -
17/06:00pm 28.7 WNW 7 10 1010.3 - - - - - - - - -
17/05:30pm 28.5 WNW 9 12 1010.1 - - - - - - - - -
17/05:00pm 28.6 WNW 10 16 1010.0 - - - - - - - - -
17/04:30pm 29.2 WNW 8 14 1009.7 - - - - - - - - -
17/04:00pm 30.7 NNE 7 14 1009.6 - - - - - - - - -
17/03:30pm 30.2 N 8 14 1009.9 - - - - - - - - -
17/03:00pm 29.9 NNW 7 14 1010.3 - - - - - - - - -
17/02:30pm 29.3 WNW 8 15 1010.8 - - - - - - - - -
17/02:00pm 28.9 NW 10 16 1011.0 - - - - - - - - -
17/01:30pm 29.9 NW 8 13 1011.4 - - - - - - - - -
17/01:00pm 29.5 WNW 9 14 1012.0 - - - - - - - - -
17/12:30pm 29.3 NW 4 8 1012.5 - - - - - - - - -
17/12:00pm 30.5 WSW 2 3 1013.0 - - - - - - - - -
17/11:30am 28.3 S 4 6 1013.4 - - - - - - - - -
17/11:00am 27.2 S 6 8 1013.8 - - - - - - - - -
17/10:30am 27.1 S 3 5 1014.2 - - - - - - - - -
17/10:00am 26.4 SSW 3 5 1014.4 - - - - - - - - -
17/09:30am 25.9 S 3 5 1014.2 - - - - - - - - -
17/09:00am 25.9 SSW 3 5 1014.2 - - - - - - - - -
17/08:30am 25.8 SSW 3 5 1013.8 - - - - - - - - -
17/08:00am 25.3 SSW 3 5 1013.6 - - - - - - - - -
17/07:30am 25.4 SW 2 5 1013.2 - - - - - - - - -
17/07:00am 25.1 WSW 3 5 1013.0 - - - - - - - - -
17/06:30am 25.3 WSW 2 4 1012.7 - - - - - - - - -
17/06:00am 25.4 SW 3 5 1012.4 - - - - - - - - -
17/05:30am 25.5 SW 3 6 1012.0 - - - - - - - - -
17/05:00am 25.6 S 2 4 1011.7 - - - - - - - - -
17/04:30am 25.7 WSW 1 2 1011.6 - - - - - - - - -
17/04:00am 25.8 WSW 1 2 1011.4 - - - - - - - - -
17/03:30am 26.0 WSW 2 4 1011.3 - - - - - - - - -
17/03:00am 26.0 W 3 4 1011.5 - - - - - - - - -
17/02:30am 26.1 W 4 6 1011.7 - - - - - - - - -
17/02:00am 26.4 W 5 7 1011.8 - - - - - - - - -
17/01:30am 26.5 W 4 7 1012.0 - - - - - - - - -
17/01:00am 26.7 W 6 8 1012.3 - - - - - - - - -
17/12:30am 26.6 W 7 9 1012.3 - - - - - - - - -
17/12:00am 26.8 WNW 8 10 1012.4 - - - - - - - - -
 
Date/Time
CST
Temp

°C
Wind Pressure Rain
since 9am
mm
Weather Cloud Vis
km
Sea
Height
m
Swell
Dir
 
Speed
knots
Gust
knots
hPa Trend Height
m
Period
s
Dir
16/11:30pm 26.9 W 8 11 1012.4 - - - - - - - - -
16/11:00pm 27.0 WNW 5 11 1012.3 - - - - - - - - -
16/10:30pm 27.3 NW 6 10 1012.2 - - - - - - - - -
16/10:00pm 27.3 NW 4 8 1011.9 - - - - - - - - -
16/09:30pm 27.3 WNW 6 10 1011.5 - - - - - - - - -
16/09:00pm 28.6 N 2 3 1011.1 - - - - - - - - -
16/08:30pm 28.4 NW 2 4 1010.8 - - - - - - - - -
16/08:00pm 28.6 NNE 3 7 1010.3 - - - - - - - - -
16/07:30pm 28.8 N 3 8 1009.8 - - - - - - - - -

Other Formats:

Comma delimited format used in spreadsheet applications
http://www.bom.gov.au/fwo/IDD60701/IDD60701.95122.axf

JavaScript Object Notation format (JSON) in row-major order
http://www.bom.gov.au/fwo/IDD60701/IDD60701.95122.json